createdAt,value
2022-08-22T00:00:05.141Z,978.32
2022-08-22T00:01:06.386Z,978.41
2022-08-22T00:02:03.378Z,978.30
2022-08-22T00:02:51.284Z,978.72
2022-08-22T00:03:14.780Z,978.45
2022-08-22T00:03:14.962Z,978.55
2022-08-22T00:03:17.198Z,978.26
2022-08-22T00:03:18.943Z,978.33
2022-08-22T00:04:03.292Z,978.33
2022-08-22T00:05:03.343Z,978.41
2022-08-22T00:06:03.463Z,978.35
2022-08-22T00:07:03.377Z,978.36
2022-08-22T00:08:03.383Z,978.15
2022-08-22T00:09:03.450Z,978.30
2022-08-22T00:10:03.594Z,978.24
2022-08-22T00:11:03.369Z,978.30
2022-08-22T00:12:03.380Z,978.27
2022-08-22T00:13:03.510Z,978.41
2022-08-22T00:14:03.416Z,978.33
2022-08-22T00:15:03.475Z,978.24
2022-08-22T00:16:03.467Z,978.33
2022-08-22T00:17:03.514Z,978.33
2022-08-22T00:18:06.077Z,978.33
2022-08-22T00:19:03.477Z,978.44
2022-08-22T00:20:03.535Z,978.44
2022-08-22T00:21:03.517Z,978.33
2022-08-22T00:22:03.651Z,978.36
2022-08-22T00:23:03.542Z,978.44
2022-08-22T00:24:03.564Z,978.36
2022-08-22T00:25:03.630Z,978.33
2022-08-22T00:26:03.602Z,978.33
2022-08-22T00:27:04.008Z,978.16
2022-08-22T00:28:03.042Z,978.22
2022-08-22T00:29:03.192Z,978.28
2022-08-22T00:30:03.562Z,978.28
2022-08-22T00:31:03.214Z,978.25
2022-08-22T00:32:03.301Z,978.34
2022-08-22T00:33:03.280Z,978.11
2022-08-22T00:34:03.246Z,978.25
2022-08-22T00:35:03.208Z,978.25
2022-08-22T00:36:03.218Z,978.34
2022-08-22T00:37:03.295Z,978.37
2022-08-22T00:38:03.385Z,978.28
2022-08-22T00:39:03.355Z,978.31
2022-08-22T00:40:03.982Z,978.45
2022-08-22T00:41:03.453Z,978.45
2022-08-22T00:42:03.510Z,978.31
2022-08-22T00:43:03.542Z,978.31
2022-08-22T00:44:03.576Z,978.37
2022-08-22T00:45:03.583Z,978.43
2022-08-22T00:46:03.717Z,978.37
2022-08-22T00:47:03.675Z,978.48
2022-08-22T00:48:04.147Z,978.37
2022-08-22T00:49:03.843Z,978.23
2022-08-22T00:50:03.761Z,978.40
2022-08-22T00:51:02.986Z,978.32
2022-08-22T00:52:02.993Z,978.41
2022-08-22T00:53:02.901Z,978.44
2022-08-22T00:54:07.050Z,978.29
2022-08-22T00:55:03.921Z,978.29
2022-08-22T00:56:03.905Z,978.32
2022-08-22T00:57:03.913Z,978.33
2022-08-22T00:58:03.851Z,978.30
2022-08-22T00:59:24.164Z,978.35
2022-08-22T01:00:02.954Z,978.27
2022-08-22T01:01:03.151Z,978.24
2022-08-22T01:02:02.955Z,978.27
2022-08-22T01:03:03.097Z,978.24
2022-08-22T01:04:03.127Z,978.18
2022-08-22T01:05:03.144Z,978.27
2022-08-22T01:06:03.125Z,978.21
2022-08-22T01:07:03.146Z,978.30
2022-08-22T01:08:03.114Z,978.27
2022-08-22T01:09:03.568Z,978.30
2022-08-22T01:10:03.640Z,978.24
2022-08-22T01:11:03.663Z,978.27
2022-08-22T01:12:03.693Z,978.33
2022-08-22T01:13:03.750Z,978.33
2022-08-22T01:14:03.823Z,978.27
2022-08-22T01:15:02.967Z,978.33
2022-08-22T01:16:02.956Z,978.19
2022-08-22T01:17:03.954Z,978.27
2022-08-22T01:18:03.087Z,978.27
2022-08-22T01:19:03.061Z,978.25
2022-08-22T01:20:03.078Z,978.10
2022-08-22T01:21:03.148Z,978.28
2022-08-22T01:22:03.102Z,978.25
2022-08-22T01:23:03.231Z,978.25
2022-08-22T01:24:03.268Z,978.42
2022-08-22T01:25:05.126Z,978.28
2022-08-22T01:26:03.231Z,978.31
2022-08-22T01:27:03.342Z,978.31
2022-08-22T01:28:03.312Z,978.25
2022-08-22T01:29:05.691Z,978.22
2022-08-22T01:30:03.368Z,978.37
2022-08-22T01:31:03.364Z,978.25
2022-08-22T01:32:03.331Z,978.25
2022-08-22T01:33:03.361Z,978.25
2022-08-22T01:34:04.153Z,978.22
2022-08-22T01:35:03.392Z,978.28
2022-08-22T01:36:03.597Z,978.34
2022-08-22T01:37:03.608Z,978.43
2022-08-22T01:38:03.602Z,978.28
2022-08-22T01:39:03.583Z,978.25
2022-08-22T01:40:03.819Z,978.25
2022-08-22T01:41:04.778Z,978.28
2022-08-22T01:42:03.530Z,978.23
2022-08-22T01:43:03.695Z,978.23
2022-08-22T01:44:03.778Z,978.23
2022-08-22T01:45:03.766Z,978.23
2022-08-22T01:46:03.706Z,978.14
2022-08-22T01:47:03.739Z,978.23
2022-08-22T01:48:04.105Z,978.20
2022-08-22T01:49:03.964Z,978.20
2022-08-22T01:50:03.921Z,978.32
2022-08-22T01:51:05.359Z,978.29
2022-08-22T01:52:03.817Z,978.37
2022-08-22T01:53:03.958Z,978.23
2022-08-22T01:54:03.873Z,978.32
2022-08-22T01:55:02.961Z,978.32
2022-08-22T01:56:03.022Z,978.32
2022-08-22T01:57:03.302Z,978.29
2022-08-22T01:58:03.178Z,978.24
2022-08-22T01:59:03.354Z,978.35
2022-08-22T02:00:03.295Z,978.27
2022-08-22T02:01:03.546Z,978.41
2022-08-22T02:02:03.426Z,978.38
2022-08-22T02:03:03.461Z,978.44
2022-08-22T02:04:03.589Z,978.35
2022-08-22T02:05:03.526Z,978.30
2022-08-22T02:06:03.367Z,978.38
2022-08-22T02:07:03.454Z,978.33
2022-08-22T02:08:03.637Z,978.38
2022-08-22T02:09:03.610Z,978.33
2022-08-22T02:10:03.665Z,978.30
2022-08-22T02:11:03.781Z,978.24
2022-08-22T02:12:22.031Z,978.24
2022-08-22T02:13:03.777Z,978.24
2022-08-22T02:14:03.881Z,978.27
2022-08-22T02:15:02.934Z,978.18
2022-08-22T02:16:03.058Z,978.19
2022-08-22T02:17:03.113Z,978.30
2022-08-22T02:18:03.111Z,978.16
2022-08-22T02:19:03.210Z,978.16
2022-08-22T02:20:03.301Z,978.25
2022-08-22T02:21:03.285Z,978.25
2022-08-22T02:22:03.323Z,978.19
2022-08-22T02:23:03.234Z,978.22
2022-08-22T02:24:03.217Z,978.22
2022-08-22T02:25:09.322Z,978.25
2022-08-22T02:26:03.298Z,978.25
2022-08-22T02:27:03.204Z,978.16
2022-08-22T02:28:03.271Z,978.28
2022-08-22T02:29:03.248Z,978.22
2022-08-22T02:30:04.294Z,978.22
2022-08-22T02:31:03.437Z,978.17
2022-08-22T02:32:03.384Z,978.25
2022-08-22T02:33:03.492Z,978.19
2022-08-22T02:34:03.462Z,978.28
2022-08-22T02:35:03.570Z,978.37
2022-08-22T02:36:03.600Z,978.28
2022-08-22T02:37:03.758Z,978.25
2022-08-22T02:38:03.806Z,978.22
2022-08-22T02:39:03.801Z,978.20
2022-08-22T02:40:03.061Z,978.28
2022-08-22T02:41:02.913Z,978.40
2022-08-22T02:42:02.994Z,978.31
2022-08-22T02:43:03.045Z,978.28
2022-08-22T02:44:03.217Z,978.25
2022-08-22T02:45:03.183Z,978.20
2022-08-22T02:46:03.256Z,978.37
2022-08-22T02:47:03.279Z,978.25
2022-08-22T02:48:03.307Z,978.23
2022-08-22T02:49:03.371Z,978.17
2022-08-22T02:50:04.852Z,978.17
2022-08-22T02:51:03.440Z,978.23
2022-08-22T02:52:03.426Z,978.23
2022-08-22T02:53:03.423Z,978.28
2022-08-22T02:54:03.453Z,978.20
2022-08-22T02:55:03.532Z,978.40
2022-08-22T02:56:03.650Z,978.26
2022-08-22T02:57:04.966Z,978.26
2022-08-22T02:58:03.734Z,978.26
2022-08-22T02:59:03.867Z,978.31
2022-08-22T03:00:03.907Z,978.37
2022-08-22T03:01:03.000Z,978.26
2022-08-22T03:02:02.933Z,978.29
2022-08-22T03:03:03.951Z,978.32
2022-08-22T03:04:02.910Z,978.17
2022-08-22T03:05:02.914Z,978.29
2022-08-22T03:06:02.979Z,978.20
2022-08-22T03:07:02.950Z,978.26
2022-08-22T03:08:03.046Z,978.32
2022-08-22T03:09:03.015Z,978.15
2022-08-22T03:10:02.986Z,978.32
2022-08-22T03:11:03.022Z,978.20
2022-08-22T03:12:03.067Z,978.15
2022-08-22T03:13:03.116Z,978.23
2022-08-22T03:14:03.223Z,978.23
2022-08-22T03:15:03.152Z,978.35
2022-08-22T03:16:03.198Z,978.09
2022-08-22T03:17:03.316Z,978.21
2022-08-22T03:18:03.493Z,978.24
2022-08-22T03:19:03.406Z,978.29
2022-08-22T03:20:03.525Z,978.29
2022-08-22T03:21:03.600Z,978.29
2022-08-22T03:22:03.600Z,978.15
2022-08-22T03:23:03.722Z,978.32
2022-08-22T03:24:03.765Z,978.24
2022-08-22T03:25:02.936Z,978.24
2022-08-22T03:26:07.993Z,978.15
2022-08-22T03:27:03.855Z,978.24
2022-08-22T03:28:03.862Z,978.18
2022-08-22T03:29:02.968Z,978.21
2022-08-22T03:30:03.036Z,978.30
2022-08-22T03:31:03.044Z,978.21
2022-08-22T03:32:03.103Z,978.38
2022-08-22T03:33:03.154Z,978.24
2022-08-22T03:34:03.192Z,978.24
2022-08-22T03:35:03.181Z,978.27
2022-08-22T03:36:03.130Z,978.22
2022-08-22T03:37:03.261Z,978.22
2022-08-22T03:38:03.395Z,978.22
2022-08-22T03:39:15.317Z,978.30
2022-08-22T03:40:03.620Z,978.33
2022-08-22T03:41:03.522Z,978.36
2022-08-22T03:42:03.558Z,978.28
2022-08-22T03:43:03.670Z,978.36
2022-08-22T03:44:03.792Z,978.37
2022-08-22T03:45:07.311Z,978.31
2022-08-22T03:46:02.884Z,978.25
2022-08-22T03:47:03.054Z,978.34
2022-08-22T03:48:03.010Z,978.31
2022-08-22T03:49:03.003Z,978.31
2022-08-22T03:50:03.069Z,978.37
2022-08-22T03:51:03.126Z,978.28
2022-08-22T03:52:03.130Z,978.40
2022-08-22T03:53:03.660Z,978.20
2022-08-22T03:54:03.407Z,978.20
2022-08-22T03:55:03.491Z,978.11
2022-08-22T03:56:03.598Z,978.31
2022-08-22T03:57:03.713Z,978.31
2022-08-22T03:58:03.793Z,978.28
2022-08-22T03:59:10.396Z,978.28
2022-08-22T04:00:02.938Z,978.20
2022-08-22T04:01:03.076Z,978.14
2022-08-22T04:02:33.447Z,978.20
2022-08-22T04:03:03.150Z,978.08
2022-08-22T04:04:03.152Z,978.26
2022-08-22T04:05:04.863Z,978.23
2022-08-22T04:06:11.651Z,978.17
2022-08-22T04:07:07.865Z,978.37
2022-08-22T04:08:04.024Z,978.20
2022-08-22T04:09:04.538Z,978.20
2022-08-22T04:10:03.316Z,978.23
2022-08-22T04:11:03.746Z,978.14
2022-08-22T04:12:03.564Z,978.23
2022-08-22T04:13:03.649Z,978.23
2022-08-22T04:14:03.626Z,978.23
2022-08-22T04:15:03.606Z,978.20
2022-08-22T04:16:03.674Z,978.26
2022-08-22T04:17:03.897Z,978.31
2022-08-22T04:18:03.032Z,978.23
2022-08-22T04:19:03.068Z,978.26
2022-08-22T04:20:03.151Z,978.37
2022-08-22T04:21:03.155Z,978.26
2022-08-22T04:22:03.329Z,978.34
2022-08-22T04:23:03.377Z,978.35
2022-08-22T04:24:03.352Z,978.29
2022-08-22T04:25:08.402Z,978.35
2022-08-22T04:26:13.002Z,978.23
2022-08-22T04:27:03.055Z,978.43
2022-08-22T04:28:03.079Z,978.48
2022-08-22T04:29:02.992Z,978.29
2022-08-22T04:30:03.010Z,978.32
2022-08-22T04:31:03.003Z,978.43
2022-08-22T04:32:03.069Z,978.40
2022-08-22T04:33:03.080Z,978.57
2022-08-22T04:34:03.009Z,978.38
2022-08-22T04:35:02.972Z,978.35
2022-08-22T04:36:02.937Z,978.45
2022-08-22T04:37:02.935Z,978.48
2022-08-22T04:38:03.032Z,978.45
2022-08-22T04:39:03.055Z,978.40
2022-08-22T04:40:03.185Z,978.43
2022-08-22T04:41:05.140Z,978.43
2022-08-22T04:42:33.206Z,978.45
2022-08-22T04:43:04.018Z,978.45
2022-08-22T04:44:03.221Z,978.45
2022-08-22T04:45:03.235Z,978.32
2022-08-22T04:46:03.231Z,978.51
2022-08-22T04:47:03.453Z,978.45
2022-08-22T04:48:03.449Z,978.34
2022-08-22T04:49:03.506Z,978.40
2022-08-22T04:50:03.631Z,978.48
2022-08-22T04:51:03.620Z,978.54
2022-08-22T04:52:03.686Z,978.43
2022-08-22T04:53:03.674Z,978.43
2022-08-22T04:54:03.815Z,978.43
2022-08-22T04:55:03.784Z,978.45
2022-08-22T04:56:07.928Z,978.45
2022-08-22T04:57:03.096Z,978.53
2022-08-22T04:58:06.899Z,978.39
2022-08-22T04:59:03.436Z,978.36
2022-08-22T05:00:03.255Z,978.58
2022-08-22T05:01:03.289Z,978.46
2022-08-22T05:02:03.424Z,978.57
2022-08-22T05:03:03.867Z,978.51
2022-08-22T05:04:03.859Z,978.57
2022-08-22T05:05:03.021Z,978.59
2022-08-22T05:06:03.055Z,978.62
2022-08-22T05:07:03.025Z,978.53
2022-08-22T05:08:03.222Z,978.61
2022-08-22T05:09:03.082Z,978.55
2022-08-22T05:10:12.666Z,978.69
2022-08-22T05:11:03.080Z,978.65
2022-08-22T05:12:03.147Z,978.53
2022-08-22T05:13:03.255Z,978.59
2022-08-22T05:14:03.282Z,978.50
2022-08-22T05:15:03.400Z,978.67
2022-08-22T05:16:04.707Z,978.58
2022-08-22T05:17:03.591Z,978.66
2022-08-22T05:18:03.526Z,978.66
2022-08-22T05:19:03.594Z,978.62
2022-08-22T05:20:03.610Z,978.68
2022-08-22T05:21:03.636Z,978.76
2022-08-22T05:22:03.718Z,978.67
2022-08-22T05:23:06.340Z,978.73
2022-08-22T05:24:03.016Z,978.64
2022-08-22T05:25:02.913Z,978.75
2022-08-22T05:26:03.065Z,978.83
2022-08-22T05:27:03.138Z,978.71
2022-08-22T05:28:03.155Z,978.73
2022-08-22T05:29:03.753Z,978.87
2022-08-22T05:30:03.328Z,978.78
2022-08-22T05:31:03.249Z,978.89
2022-08-22T05:32:03.211Z,978.77
2022-08-22T05:33:03.201Z,978.94
2022-08-22T05:34:03.183Z,978.85
2022-08-22T05:35:03.266Z,978.90
2022-08-22T05:36:03.521Z,978.86
2022-08-22T05:37:08.025Z,978.97
2022-08-22T05:38:03.764Z,978.94
2022-08-22T05:39:03.718Z,979.14
2022-08-22T05:40:03.904Z,979.10
2022-08-22T05:41:03.673Z,978.98
2022-08-22T05:42:03.704Z,979.09
2022-08-22T05:43:03.724Z,979.20
2022-08-22T05:44:03.757Z,979.19
2022-08-22T05:45:03.835Z,979.19
2022-08-22T05:46:03.902Z,979.24
2022-08-22T05:47:02.959Z,979.29
2022-08-22T05:48:03.008Z,979.23
2022-08-22T05:49:03.157Z,979.34
2022-08-22T05:50:03.245Z,979.25
2022-08-22T05:51:03.297Z,979.27
2022-08-22T05:52:03.265Z,979.38
2022-08-22T05:53:03.246Z,979.49
2022-08-22T05:54:03.364Z,979.49
2022-08-22T05:55:03.402Z,979.45
2022-08-22T05:56:03.443Z,979.51
2022-08-22T05:57:08.067Z,979.56
2022-08-22T05:58:03.607Z,979.59
2022-08-22T05:59:08.741Z,979.67
2022-08-22T06:00:03.833Z,979.46
2022-08-22T06:01:02.977Z,979.60
2022-08-22T06:02:03.155Z,979.57
2022-08-22T06:03:03.131Z,979.74
2022-08-22T06:04:03.148Z,979.68
2022-08-22T06:05:03.170Z,979.71
2022-08-22T06:06:03.322Z,979.87
2022-08-22T06:07:03.230Z,979.74
2022-08-22T06:08:03.272Z,979.90
2022-08-22T06:09:03.463Z,979.90
2022-08-22T06:10:03.399Z,979.87
2022-08-22T06:11:03.426Z,979.87
2022-08-22T06:12:03.510Z,979.82
2022-08-22T06:13:04.068Z,979.85
2022-08-22T06:14:04.170Z,979.95
2022-08-22T06:15:12.575Z,980.01
2022-08-22T06:16:04.127Z,979.89
2022-08-22T06:17:03.940Z,979.95
2022-08-22T06:18:02.926Z,980.15
2022-08-22T06:19:03.028Z,980.15
2022-08-22T06:20:03.156Z,979.97
2022-08-22T06:21:03.291Z,980.00
2022-08-22T06:22:03.264Z,980.00
2022-08-22T06:23:03.381Z,980.02
2022-08-22T06:24:03.405Z,979.96
2022-08-22T06:25:03.431Z,980.04
2022-08-22T06:26:03.544Z,979.89
2022-08-22T06:27:03.550Z,980.04
2022-08-22T06:28:03.632Z,980.06
2022-08-22T06:29:03.621Z,980.09
2022-08-22T06:30:04.470Z,980.11
2022-08-22T06:31:03.916Z,980.05
2022-08-22T06:32:03.871Z,980.13
2022-08-22T06:33:03.619Z,980.13
2022-08-22T06:34:03.063Z,980.26
2022-08-22T06:35:04.543Z,980.32
2022-08-22T06:36:03.118Z,980.32
2022-08-22T06:37:03.086Z,980.26
2022-08-22T06:38:03.281Z,980.34
2022-08-22T06:39:03.289Z,980.40
2022-08-22T06:40:03.476Z,980.30
2022-08-22T06:41:03.335Z,980.36
2022-08-22T06:42:03.421Z,980.50
2022-08-22T06:43:03.433Z,980.36
2022-08-22T06:44:03.564Z,980.33
2022-08-22T06:45:03.536Z,980.50
2022-08-22T06:46:03.596Z,980.29
2022-08-22T06:47:03.754Z,980.38
2022-08-22T06:48:04.394Z,980.43
2022-08-22T06:49:03.821Z,980.23
2022-08-22T06:50:03.865Z,980.54
2022-08-22T06:51:03.013Z,980.34
2022-08-22T06:52:03.125Z,980.39
2022-08-22T06:53:03.137Z,980.39
2022-08-22T06:54:03.138Z,980.44
2022-08-22T06:55:03.256Z,980.47
2022-08-22T06:56:03.424Z,980.47
2022-08-22T06:57:03.448Z,980.44
2022-08-22T06:58:03.398Z,980.47
2022-08-22T06:59:03.480Z,980.50
2022-08-22T07:00:03.434Z,980.47
2022-08-22T07:01:12.742Z,980.50
2022-08-22T07:02:03.686Z,980.47
2022-08-22T07:03:03.596Z,980.61
2022-08-22T07:04:03.654Z,980.53
2022-08-22T07:05:03.648Z,980.53
2022-08-22T07:06:03.781Z,980.50
2022-08-22T07:07:03.917Z,980.56
2022-08-22T07:08:03.924Z,980.53
2022-08-22T07:09:07.311Z,980.55
2022-08-22T07:10:03.099Z,980.61
2022-08-22T07:11:02.992Z,980.46
2022-08-22T07:12:03.057Z,980.61
2022-08-22T07:13:03.148Z,980.43
2022-08-22T07:14:03.180Z,980.55
2022-08-22T07:15:03.310Z,980.63
2022-08-22T07:16:03.398Z,980.55
2022-08-22T07:17:04.667Z,980.55
2022-08-22T07:18:03.704Z,980.60
2022-08-22T07:19:03.716Z,980.57
2022-08-22T07:20:03.811Z,980.63
2022-08-22T07:21:03.827Z,980.60
2022-08-22T07:22:02.946Z,980.54
2022-08-22T07:23:04.542Z,980.57
2022-08-22T07:24:03.595Z,980.57
2022-08-22T07:25:03.724Z,980.59
2022-08-22T07:26:03.717Z,980.68
2022-08-22T07:27:05.763Z,980.53
2022-08-22T07:28:04.235Z,980.68
2022-08-22T07:29:10.383Z,980.64
2022-08-22T07:30:04.388Z,980.64
2022-08-22T07:31:03.885Z,980.55
2022-08-22T07:32:03.865Z,980.55
2022-08-22T07:33:27.314Z,980.61
2022-08-22T07:34:02.980Z,980.76
2022-08-22T07:35:03.040Z,980.64
2022-08-22T07:36:03.191Z,980.70
2022-08-22T07:37:03.199Z,980.70
2022-08-22T07:38:03.197Z,980.67
2022-08-22T07:39:03.244Z,980.69
2022-08-22T07:40:03.384Z,980.60
2022-08-22T07:41:03.310Z,980.66
2022-08-22T07:42:03.299Z,980.57
2022-08-22T07:43:03.385Z,980.66
2022-08-22T07:44:03.359Z,980.69
2022-08-22T07:45:03.456Z,980.63
2022-08-22T07:46:03.541Z,980.66
2022-08-22T07:47:03.476Z,980.80
2022-08-22T07:48:03.637Z,980.71
2022-08-22T07:49:10.323Z,980.71
2022-08-22T07:50:03.688Z,980.83
2022-08-22T07:51:03.685Z,980.74
2022-08-22T07:52:03.799Z,980.95
2022-08-22T07:53:03.869Z,980.77
2022-08-22T07:54:03.860Z,980.77
2022-08-22T07:55:02.920Z,980.74
2022-08-22T07:56:03.041Z,980.77
2022-08-22T07:57:03.097Z,980.83
2022-08-22T07:58:04.564Z,980.74
2022-08-22T07:59:09.974Z,980.79
2022-08-22T08:00:03.065Z,980.82
2022-08-22T08:01:03.149Z,980.79
2022-08-22T08:02:03.172Z,980.73
2022-08-22T08:03:03.288Z,980.70
2022-08-22T08:04:03.380Z,980.84
2022-08-22T08:05:03.319Z,980.81
2022-08-22T08:06:03.436Z,980.78
2022-08-22T08:07:03.464Z,980.75
2022-08-22T08:08:03.504Z,980.81
2022-08-22T08:09:03.535Z,980.75
2022-08-22T08:10:03.597Z,980.72
2022-08-22T08:11:03.469Z,980.81
2022-08-22T08:12:03.395Z,980.72
2022-08-22T08:13:03.532Z,980.75
2022-08-22T08:14:03.538Z,980.66
2022-08-22T08:15:03.734Z,980.61
2022-08-22T08:16:03.809Z,980.67
2022-08-22T08:17:03.796Z,980.73
2022-08-22T08:18:03.841Z,980.73
2022-08-22T08:19:03.881Z,980.73
2022-08-22T08:20:02.911Z,980.61
2022-08-22T08:21:03.002Z,980.79
2022-08-22T08:22:03.045Z,980.64
2022-08-22T08:23:02.995Z,980.79
2022-08-22T08:24:03.327Z,980.85
2022-08-22T08:25:03.205Z,980.88
2022-08-22T08:26:03.253Z,980.86
2022-08-22T08:27:03.323Z,980.86
2022-08-22T08:28:03.354Z,980.98
2022-08-22T08:29:03.385Z,980.83
2022-08-22T08:30:03.421Z,980.98
2022-08-22T08:31:03.434Z,980.92
2022-08-22T08:32:03.801Z,980.95
2022-08-22T08:33:26.803Z,981.12
2022-08-22T08:34:03.910Z,981.01
2022-08-22T08:35:03.993Z,981.01
2022-08-22T08:36:04.381Z,981.09
2022-08-22T08:37:03.170Z,980.92
2022-08-22T08:38:03.274Z,981.06
2022-08-22T08:39:03.346Z,981.03
2022-08-22T08:40:03.391Z,981.12
2022-08-22T08:41:03.300Z,981.09
2022-08-22T08:42:03.196Z,981.03
2022-08-22T08:43:03.136Z,981.15
2022-08-22T08:44:03.147Z,981.06
2022-08-22T08:45:03.102Z,981.12
2022-08-22T08:46:05.889Z,981.06
2022-08-22T08:47:03.086Z,981.15
2022-08-22T08:48:04.595Z,981.09
2022-08-22T08:49:06.870Z,981.12
2022-08-22T08:50:03.484Z,981.12
2022-08-22T08:51:03.288Z,981.15
2022-08-22T08:52:03.453Z,981.18
2022-08-22T08:53:05.661Z,981.13
2022-08-22T08:54:03.359Z,981.13
2022-08-22T08:55:22.972Z,981.19
2022-08-22T08:56:03.405Z,981.25
2022-08-22T08:57:06.127Z,981.22
2022-08-22T08:58:07.265Z,981.16
2022-08-22T08:59:10.500Z,981.13
2022-08-22T09:00:04.053Z,981.22
2022-08-22T09:01:05.187Z,981.22
2022-08-22T09:02:03.506Z,981.22
2022-08-22T09:03:07.455Z,981.16
2022-08-22T09:04:04.163Z,981.19
2022-08-22T09:05:05.812Z,981.31
2022-08-22T09:06:03.675Z,981.19
2022-08-22T09:07:04.615Z,981.28
2022-08-22T09:08:05.750Z,981.22
2022-08-22T09:09:04.209Z,981.19
2022-08-22T09:10:03.804Z,981.31
2022-08-22T09:11:10.179Z,981.34
2022-08-22T09:12:02.943Z,981.19
2022-08-22T09:13:12.952Z,981.28
2022-08-22T09:14:03.498Z,981.28
2022-08-22T09:15:03.519Z,981.16
2022-08-22T09:17:07.338Z,981.22
2022-08-22T09:18:04.808Z,981.16
2022-08-22T09:19:03.691Z,981.19
2022-08-22T09:21:03.886Z,981.25
2022-08-22T09:22:02.973Z,981.22
2022-08-22T09:23:04.116Z,981.28
2022-08-22T09:24:03.187Z,981.25
2022-08-22T09:25:06.531Z,981.25
2022-08-22T09:26:05.306Z,981.42
2022-08-22T09:27:09.186Z,981.28
2022-08-22T09:28:03.408Z,981.25
2022-08-22T09:29:03.527Z,981.25
2022-08-22T09:30:04.940Z,981.22
2022-08-22T09:31:32.655Z,981.40
2022-08-22T09:32:03.821Z,981.28
2022-08-22T09:33:04.037Z,981.25
2022-08-22T09:34:05.756Z,981.28
2022-08-22T09:35:03.345Z,981.25
2022-08-22T09:36:05.643Z,981.25
2022-08-22T09:37:03.131Z,981.25
2022-08-22T09:38:03.186Z,981.22
2022-08-22T09:39:06.173Z,981.30
2022-08-22T09:40:03.416Z,981.31
2022-08-22T09:41:03.420Z,981.39
2022-08-22T09:42:03.351Z,981.37
2022-08-22T09:43:03.652Z,981.36
2022-08-22T09:44:03.535Z,981.45
2022-08-22T09:45:03.619Z,981.42
2022-08-22T09:46:03.634Z,981.24
2022-08-22T09:47:03.756Z,981.30
2022-08-22T09:48:08.060Z,981.27
2022-08-22T09:49:06.884Z,981.33
2022-08-22T09:50:03.845Z,981.36
2022-08-22T09:51:33.266Z,981.33
2022-08-22T09:52:33.215Z,981.21
2022-08-22T09:53:04.087Z,981.24
2022-08-22T09:54:04.534Z,981.26
2022-08-22T09:55:08.693Z,981.29
2022-08-22T09:56:15.945Z,981.20
2022-08-22T09:57:03.163Z,981.29
2022-08-22T09:58:04.167Z,981.34
2022-08-22T09:59:03.350Z,981.26
2022-08-22T10:00:03.730Z,981.28
2022-08-22T10:01:03.541Z,981.22
2022-08-22T10:02:06.328Z,981.22
2022-08-22T10:03:03.554Z,981.34
2022-08-22T10:04:06.117Z,981.31
2022-08-22T10:05:04.451Z,981.40
2022-08-22T10:06:06.304Z,981.31
2022-08-22T10:07:05.622Z,981.31
2022-08-22T10:08:05.555Z,981.49
2022-08-22T10:09:03.810Z,981.49
2022-08-22T10:10:03.880Z,981.49
2022-08-22T10:11:06.948Z,981.47
2022-08-22T10:12:03.945Z,981.50
2022-08-22T10:13:03.902Z,981.50
2022-08-22T10:14:02.910Z,981.53
2022-08-22T10:15:07.217Z,981.53
2022-08-22T10:16:03.122Z,981.58
2022-08-22T10:17:03.301Z,981.47
2022-08-22T10:18:04.143Z,981.50
2022-08-22T10:19:05.591Z,981.53
2022-08-22T10:20:03.283Z,981.50
2022-08-22T10:21:03.256Z,981.56
2022-08-22T10:22:03.361Z,981.54
2022-08-22T10:23:03.796Z,981.51
2022-08-22T10:24:07.626Z,981.54
2022-08-22T10:25:05.206Z,981.56
2022-08-22T10:26:03.516Z,981.56
2022-08-22T10:27:03.713Z,981.54
2022-08-22T10:28:03.720Z,981.48
2022-08-22T10:29:03.776Z,981.59
2022-08-22T10:30:04.354Z,981.62
2022-08-22T10:31:03.633Z,981.54
2022-08-22T10:32:14.675Z,981.54
2022-08-22T10:33:05.738Z,981.45
2022-08-22T10:34:03.862Z,981.44
2022-08-22T10:35:06.610Z,981.50
2022-08-22T10:36:05.646Z,981.53
2022-08-22T10:37:02.990Z,981.56
2022-08-22T10:38:03.900Z,981.44
2022-08-22T10:39:11.740Z,981.47
2022-08-22T10:40:03.298Z,981.44
2022-08-22T10:41:09.965Z,981.46
2022-08-22T10:42:03.283Z,981.40
2022-08-22T10:43:03.413Z,981.63
2022-08-22T10:44:04.711Z,981.37
2022-08-22T10:45:03.600Z,981.55
2022-08-22T10:46:03.852Z,981.43
2022-08-22T10:47:03.797Z,981.46
2022-08-22T10:48:10.267Z,981.49
2022-08-22T10:49:08.423Z,981.49
2022-08-22T10:50:09.023Z,981.60
2022-08-22T10:51:09.073Z,981.49
2022-08-22T10:52:16.164Z,981.52
2022-08-22T10:53:05.015Z,981.55
2022-08-22T10:54:03.629Z,981.52
2022-08-22T10:55:10.273Z,981.51
2022-08-22T10:56:03.767Z,981.51
2022-08-22T10:57:06.957Z,981.51
2022-08-22T10:58:04.277Z,981.48
2022-08-22T10:59:04.299Z,981.45
2022-08-22T11:00:03.542Z,981.39
2022-08-22T11:01:41.928Z,981.56
2022-08-22T11:02:03.187Z,981.70
2022-08-22T11:03:03.130Z,981.45
2022-08-22T11:04:05.065Z,981.51
2022-08-22T11:05:03.204Z,981.56
2022-08-22T11:06:03.514Z,981.45
2022-08-22T11:07:03.508Z,981.51
2022-08-22T11:08:03.493Z,981.59
2022-08-22T11:09:04.623Z,981.54
2022-08-22T11:10:03.542Z,981.51
2022-08-22T11:11:04.347Z,981.54
2022-08-22T11:12:04.874Z,981.56
2022-08-22T11:13:04.401Z,981.51
2022-08-22T11:14:03.775Z,981.45
2022-08-22T11:15:04.147Z,981.45
2022-08-22T11:16:04.780Z,981.39
2022-08-22T11:17:31.859Z,981.45
2022-08-22T11:18:03.497Z,981.42
2022-08-22T11:19:16.054Z,981.36
2022-08-22T11:20:03.451Z,981.28
2022-08-22T11:21:03.144Z,981.27
2022-08-22T11:22:04.206Z,981.39
2022-08-22T11:23:03.211Z,981.27
2022-08-22T11:24:03.787Z,981.21
2022-08-22T11:25:05.223Z,981.27
2022-08-22T11:26:05.615Z,981.15
2022-08-22T11:27:07.562Z,981.24
2022-08-22T11:28:04.451Z,981.12
2022-08-22T11:29:14.626Z,981.18
2022-08-22T11:30:03.824Z,981.30
2022-08-22T11:31:07.572Z,981.18
2022-08-22T11:32:08.153Z,981.33
2022-08-22T11:33:04.583Z,981.27
2022-08-22T11:34:02.980Z,981.33
2022-08-22T11:35:03.104Z,981.33
2022-08-22T11:36:05.043Z,981.31
2022-08-22T11:37:11.813Z,981.19
2022-08-22T11:38:03.437Z,981.40
2022-08-22T11:39:03.107Z,981.25
2022-08-22T11:40:03.464Z,981.43
2022-08-22T11:41:04.335Z,981.34
2022-08-22T11:42:03.325Z,981.25
2022-08-22T11:43:04.376Z,981.37
2022-08-22T11:44:04.040Z,981.28
2022-08-22T11:45:03.941Z,981.34
2022-08-22T11:46:05.475Z,981.14
2022-08-22T11:47:05.508Z,981.31
2022-08-22T11:48:03.554Z,981.29
2022-08-22T11:49:05.056Z,981.26
2022-08-22T11:50:11.496Z,981.29
2022-08-22T11:51:13.735Z,981.26
2022-08-22T11:52:03.668Z,981.32
2022-08-22T11:53:07.696Z,981.26
2022-08-22T11:54:02.973Z,981.14
2022-08-22T11:55:02.951Z,981.17
2022-08-22T11:56:05.977Z,981.02
2022-08-22T11:57:03.561Z,981.17
2022-08-22T11:58:03.308Z,980.99
2022-08-22T11:59:03.789Z,981.11
2022-08-22T12:00:03.502Z,981.22
2022-08-22T12:01:04.111Z,981.10
2022-08-22T12:02:04.381Z,981.07
2022-08-22T12:03:04.284Z,981.10
2022-08-22T12:04:03.910Z,981.13
2022-08-22T12:05:04.367Z,981.01
2022-08-22T12:06:03.743Z,980.98
2022-08-22T12:07:03.738Z,981.01
2022-08-22T12:08:03.839Z,981.15
2022-08-22T12:09:03.842Z,981.10
2022-08-22T12:10:04.109Z,981.16
2022-08-22T12:11:02.965Z,981.10
2022-08-22T12:12:05.108Z,981.10
2022-08-22T12:13:03.819Z,981.10
2022-08-22T12:14:07.074Z,980.98
2022-08-22T12:15:03.479Z,981.10
2022-08-22T12:16:03.326Z,981.07
2022-08-22T12:17:03.520Z,981.04
2022-08-22T12:18:03.497Z,981.04
2022-08-22T12:19:03.453Z,980.86
2022-08-22T12:20:18.571Z,981.07
2022-08-22T12:21:03.622Z,980.95
2022-08-22T12:22:03.719Z,980.89
2022-08-22T12:23:04.519Z,980.89
2022-08-22T12:24:06.458Z,980.92
2022-08-22T12:25:03.671Z,980.89
2022-08-22T12:26:05.233Z,980.95